createdAt,value
2019-01-29T00:00:43.606Z,53.48
2019-01-29T00:01:51.227Z,51.35
2019-01-29T00:02:57.884Z,52.95
2019-01-29T00:04:06.282Z,54.35
2019-01-29T00:05:13.201Z,52.65
2019-01-29T00:06:19.791Z,53.00
2019-01-29T00:07:26.540Z,53.15
2019-01-29T00:08:32.991Z,48.17
2019-01-29T00:09:39.731Z,52.73
2019-01-29T00:10:46.510Z,54.63
2019-01-29T00:11:53.116Z,52.73
2019-01-29T00:13:00.666Z,55.60
2019-01-29T00:14:07.288Z,52.40
2019-01-29T00:15:16.506Z,55.28
2019-01-29T00:16:22.902Z,52.08
2019-01-29T00:17:29.308Z,54.53
2019-01-29T00:18:35.721Z,53.73
2019-01-29T00:19:42.383Z,53.80
2019-01-29T00:20:49.026Z,53.73
2019-01-29T00:21:55.623Z,52.88
2019-01-29T00:23:02.106Z,53.60
2019-01-29T00:24:08.649Z,53.78
2019-01-29T00:25:15.715Z,53.02
2019-01-29T00:26:22.298Z,52.88
2019-01-29T00:27:28.843Z,52.73
2019-01-29T00:28:35.815Z,53.90
2019-01-29T00:29:42.349Z,52.08
2019-01-29T00:30:48.739Z,53.17
2019-01-29T00:31:55.199Z,51.48
2019-01-29T00:33:01.603Z,51.58
2019-01-29T00:34:07.996Z,49.88
2019-01-29T00:35:14.763Z,50.23
2019-01-29T00:36:21.228Z,50.10
2019-01-29T00:37:27.684Z,52.17
2019-01-29T00:38:34.041Z,51.53
2019-01-29T00:39:40.379Z,53.05
2019-01-29T00:40:46.802Z,52.43
2019-01-29T00:41:53.106Z,53.00
2019-01-29T00:42:59.856Z,51.98
2019-01-29T00:44:07.702Z,51.35
2019-01-29T00:45:14.421Z,51.35
2019-01-29T00:46:20.826Z,52.05
2019-01-29T00:47:27.235Z,50.33
2019-01-29T00:48:33.663Z,49.88
2019-01-29T00:49:39.980Z,52.40
2019-01-29T00:50:46.393Z,51.55
2019-01-29T00:51:52.849Z,49.03
2019-01-29T00:52:59.316Z,51.55
2019-01-29T00:54:06.287Z,50.33
2019-01-29T00:55:13.549Z,49.25
2019-01-29T00:56:21.107Z,48.78
2019-01-29T00:57:27.542Z,49.70
2019-01-29T00:58:34.033Z,46.58
2019-01-29T00:59:40.615Z,47.55
2019-01-29T01:00:47.095Z,47.15
2019-01-29T01:01:53.581Z,46.95
2019-01-29T01:03:00.007Z,47.17
2019-01-29T01:04:06.564Z,46.92
2019-01-29T01:05:13.074Z,44.58
2019-01-29T01:06:19.820Z,45.33
2019-01-29T01:07:26.276Z,44.93
2019-01-29T01:08:32.755Z,45.80
2019-01-29T01:09:39.243Z,46.63
2019-01-29T01:10:45.959Z,45.20
2019-01-29T01:11:52.296Z,43.00
2019-01-29T01:12:58.728Z,46.83
2019-01-29T01:14:05.970Z,46.05
2019-01-29T01:15:13.785Z,44.20
2019-01-29T01:16:20.513Z,43.75
2019-01-29T01:17:26.958Z,43.95
2019-01-29T01:18:33.316Z,43.28
2019-01-29T01:19:39.991Z,44.67
2019-01-29T01:20:46.352Z,43.73
2019-01-29T01:21:52.915Z,42.08
2019-01-29T01:22:59.337Z,41.95
2019-01-29T01:24:05.750Z,44.42
2019-01-29T01:25:12.601Z,43.73
2019-01-29T01:26:20.088Z,43.50
2019-01-29T01:27:26.531Z,44.45
2019-01-29T01:28:32.966Z,43.30
2019-01-29T01:29:39.316Z,44.60
2019-01-29T01:30:46.037Z,41.98
2019-01-29T01:31:52.530Z,43.73
2019-01-29T01:33:01.412Z,43.02
2019-01-29T01:34:07.741Z,43.50
2019-01-29T01:35:14.329Z,42.23
2019-01-29T01:36:20.729Z,43.63
2019-01-29T01:37:27.098Z,41.65
2019-01-29T01:38:33.496Z,43.80
2019-01-29T01:39:39.950Z,42.98
2019-01-29T01:40:46.371Z,40.67
2019-01-29T01:41:52.755Z,41.05
2019-01-29T01:42:59.205Z,40.33
2019-01-29T01:44:05.842Z,40.35
2019-01-29T01:45:12.693Z,39.70
2019-01-29T01:46:19.337Z,40.08
2019-01-29T01:47:25.883Z,40.00
2019-01-29T01:48:32.197Z,38.28
2019-01-29T01:49:38.630Z,39.33
2019-01-29T01:50:45.074Z,39.35
2019-01-29T01:51:51.621Z,38.65
2019-01-29T01:52:59.265Z,37.08
2019-01-29T01:54:08.150Z,39.90
2019-01-29T01:55:16.958Z,36.80
2019-01-29T01:56:23.306Z,38.75
2019-01-29T01:57:29.776Z,39.53
2019-01-29T01:58:36.141Z,37.42
2019-01-29T01:59:42.542Z,36.93
2019-01-29T02:00:50.100Z,37.25
2019-01-29T02:01:56.647Z,36.85
2019-01-29T02:03:03.025Z,36.35
2019-01-29T02:04:09.471Z,38.75
2019-01-29T02:05:16.142Z,36.85
2019-01-29T02:06:22.695Z,37.65
2019-01-29T02:07:30.253Z,36.15
2019-01-29T02:08:36.705Z,36.40
2019-01-29T02:09:43.381Z,37.93
2019-01-29T02:10:49.870Z,36.15
2019-01-29T02:11:56.396Z,35.92
2019-01-29T02:13:05.586Z,35.92
2019-01-29T02:14:12.248Z,35.70
2019-01-29T02:15:20.502Z,34.90
2019-01-29T02:16:28.086Z,35.98
2019-01-29T02:17:34.691Z,33.98
2019-01-29T02:18:41.301Z,34.25
2019-01-29T02:19:47.814Z,33.92
2019-01-29T02:20:55.366Z,36.08
2019-01-29T02:22:01.750Z,34.50
2019-01-29T02:23:08.474Z,34.13
2019-01-29T02:24:15.026Z,35.20
2019-01-29T02:25:21.436Z,34.90
2019-01-29T02:26:28.454Z,34.38
2019-01-29T02:27:35.005Z,34.33
2019-01-29T02:28:41.498Z,35.23
2019-01-29T02:29:49.151Z,35.28
2019-01-29T02:30:55.826Z,34.95
2019-01-29T02:32:03.734Z,35.10
2019-01-29T02:33:21.176Z,35.48
2019-01-29T02:34:27.637Z,34.43
2019-01-29T02:35:34.230Z,33.58
2019-01-29T02:36:40.854Z,34.98
2019-01-29T02:37:47.291Z,34.83
2019-01-29T02:38:53.741Z,35.23
2019-01-29T02:40:02.607Z,36.33
2019-01-29T02:41:09.091Z,36.50
2019-01-29T02:42:17.948Z,35.00
2019-01-29T02:43:24.572Z,35.55
2019-01-29T02:44:30.975Z,35.92
2019-01-29T02:45:37.551Z,34.23
2019-01-29T02:46:43.968Z,33.80
2019-01-29T02:47:50.401Z,36.17
2019-01-29T02:48:57.150Z,34.85
2019-01-29T02:50:03.660Z,34.95
2019-01-29T02:51:10.187Z,34.83
2019-01-29T02:52:16.553Z,34.55
2019-01-29T02:53:23.040Z,34.83
2019-01-29T02:54:29.418Z,35.48
2019-01-29T02:55:35.869Z,35.83
2019-01-29T02:56:42.408Z,35.45
2019-01-29T02:57:49.001Z,35.58
2019-01-29T02:58:55.575Z,35.68
2019-01-29T03:00:03.395Z,33.88
2019-01-29T03:01:09.841Z,36.50
2019-01-29T03:02:16.502Z,34.05
2019-01-29T03:03:23.399Z,35.73
2019-01-29T03:05:23.137Z,34.73
2019-01-29T03:07:34.124Z,33.28
2019-01-29T03:08:41.321Z,32.67
2019-01-29T03:09:47.996Z,33.83
2019-01-29T03:10:54.568Z,35.20
2019-01-29T03:12:01.064Z,34.78
2019-01-29T03:13:08.904Z,34.03
2019-01-29T03:14:15.343Z,33.98
2019-01-29T03:15:27.576Z,33.65
2019-01-29T03:16:35.180Z,34.18
2019-01-29T03:17:41.726Z,35.08
2019-01-29T03:18:48.365Z,34.55
2019-01-29T03:19:54.981Z,33.98
2019-01-29T03:21:01.593Z,31.33
2019-01-29T03:22:08.235Z,33.58
2019-01-29T03:23:14.723Z,33.00
2019-01-29T03:24:21.311Z,33.95
2019-01-29T03:25:27.939Z,31.73
2019-01-29T03:26:34.454Z,32.45
2019-01-29T03:27:41.041Z,33.63
2019-01-29T03:28:47.438Z,31.93
2019-01-29T03:29:54.191Z,34.20
2019-01-29T03:31:00.584Z,32.38
2019-01-29T03:32:07.161Z,31.52
2019-01-29T03:33:13.597Z,31.82
2019-01-29T03:34:20.158Z,31.00
2019-01-29T03:35:26.718Z,30.95
2019-01-29T03:36:33.238Z,31.60
2019-01-29T03:37:39.702Z,31.77
2019-01-29T03:38:46.117Z,31.15
2019-01-29T03:39:52.511Z,32.48
2019-01-29T03:40:58.992Z,32.30
2019-01-29T03:42:05.396Z,33.63
2019-01-29T03:43:11.807Z,31.57
2019-01-29T03:44:18.366Z,33.15
2019-01-29T03:45:24.890Z,32.30
2019-01-29T03:46:31.372Z,31.95
2019-01-29T03:47:37.892Z,32.78
2019-01-29T03:48:44.313Z,33.42
2019-01-29T03:49:51.222Z,31.73
2019-01-29T03:50:57.638Z,33.35
2019-01-29T03:52:04.087Z,32.70
2019-01-29T03:53:10.496Z,32.73
2019-01-29T03:54:17.231Z,33.80
2019-01-29T03:55:23.664Z,32.83
2019-01-29T03:56:30.046Z,33.80
2019-01-29T03:57:36.606Z,32.25
2019-01-29T03:58:43.090Z,33.25
2019-01-29T03:59:50.843Z,33.65
2019-01-29T04:00:57.241Z,32.42
2019-01-29T04:02:03.759Z,31.85
2019-01-29T04:03:10.481Z,32.33
2019-01-29T04:04:16.906Z,31.87
2019-01-29T04:05:23.337Z,32.40
2019-01-29T04:06:29.725Z,32.50
2019-01-29T04:07:36.016Z,32.48
2019-01-29T04:08:42.484Z,33.45
2019-01-29T04:09:49.108Z,33.70
2019-01-29T04:10:55.629Z,32.15
2019-01-29T04:12:02.007Z,32.28
2019-01-29T04:13:08.401Z,33.70
2019-01-29T04:14:14.874Z,33.75
2019-01-29T04:15:22.004Z,33.42
2019-01-29T04:16:28.416Z,34.85
2019-01-29T04:17:34.805Z,34.13
2019-01-29T04:18:44.008Z,32.85
2019-01-29T04:19:50.488Z,32.23
2019-01-29T04:20:58.375Z,34.10
2019-01-29T04:22:06.225Z,33.00
2019-01-29T04:23:12.593Z,33.42
2019-01-29T04:24:18.985Z,33.42
2019-01-29T04:25:25.622Z,34.67
2019-01-29T04:26:32.023Z,32.13
2019-01-29T04:27:38.519Z,31.85
2019-01-29T04:28:44.935Z,33.02
2019-01-29T04:29:52.506Z,32.30
2019-01-29T04:30:58.981Z,33.73
2019-01-29T04:32:05.457Z,31.75
2019-01-29T04:33:12.047Z,34.15
2019-01-29T04:34:18.666Z,33.60
2019-01-29T04:35:25.082Z,34.10
2019-01-29T04:36:31.634Z,33.23
2019-01-29T04:37:38.156Z,31.80
2019-01-29T04:38:44.801Z,31.95
2019-01-29T04:39:51.400Z,32.45
2019-01-29T04:40:58.005Z,32.60
2019-01-29T04:42:04.577Z,32.98
2019-01-29T04:43:13.040Z,33.35
2019-01-29T04:44:19.304Z,31.45
2019-01-29T04:45:25.834Z,31.90
2019-01-29T04:46:32.315Z,32.65
2019-01-29T04:47:38.961Z,32.42
2019-01-29T04:48:45.434Z,32.20
2019-01-29T04:49:53.566Z,32.63
2019-01-29T04:51:00.501Z,33.48
2019-01-29T04:52:07.192Z,31.37
2019-01-29T04:53:13.660Z,33.13
2019-01-29T04:54:20.337Z,32.67
2019-01-29T04:55:26.828Z,32.23
2019-01-29T04:56:33.247Z,31.48
2019-01-29T04:57:39.744Z,32.08
2019-01-29T04:58:46.170Z,32.42
2019-01-29T04:59:53.876Z,33.55
2019-01-29T05:01:01.106Z,32.08
2019-01-29T05:02:07.636Z,33.23
2019-01-29T05:03:14.045Z,31.05
2019-01-29T05:04:20.581Z,33.30
2019-01-29T05:05:27.071Z,33.23
2019-01-29T05:06:33.433Z,31.73
2019-01-29T05:07:39.936Z,31.62
2019-01-29T05:08:46.546Z,32.40
2019-01-29T05:09:53.252Z,32.60
2019-01-29T05:10:59.706Z,30.45
2019-01-29T05:12:06.118Z,31.75
2019-01-29T05:13:12.958Z,30.75
2019-01-29T05:14:19.617Z,30.88
2019-01-29T05:15:26.107Z,31.77
2019-01-29T05:16:32.523Z,32.30
2019-01-29T05:17:39.042Z,31.68
2019-01-29T05:18:45.354Z,34.30
2019-01-29T05:19:51.812Z,33.15
2019-01-29T05:20:58.351Z,31.90
2019-01-29T05:22:04.920Z,32.03
2019-01-29T05:23:11.369Z,31.02
2019-01-29T05:24:17.804Z,31.45
2019-01-29T05:25:24.200Z,31.48
2019-01-29T05:26:30.883Z,33.33
2019-01-29T05:27:37.287Z,31.68
2019-01-29T05:28:43.765Z,32.55
2019-01-29T05:29:52.440Z,31.80
2019-01-29T05:30:59.290Z,32.50
2019-01-29T05:32:05.844Z,32.53
2019-01-29T05:33:12.333Z,32.98
2019-01-29T05:34:18.786Z,32.75
2019-01-29T05:35:25.307Z,32.63
2019-01-29T05:36:31.683Z,34.58
2019-01-29T05:37:38.255Z,32.60
2019-01-29T05:38:44.885Z,32.45
2019-01-29T05:39:51.607Z,34.23
2019-01-29T05:40:57.980Z,31.50
2019-01-29T05:42:05.623Z,33.30
2019-01-29T05:43:12.227Z,33.08
2019-01-29T05:44:19.163Z,31.93
2019-01-29T05:45:26.521Z,32.35
2019-01-29T05:46:32.954Z,33.73
2019-01-29T05:47:39.413Z,31.77
2019-01-29T05:48:45.927Z,33.38
2019-01-29T05:49:52.494Z,33.23
2019-01-29T05:50:59.145Z,33.18
2019-01-29T05:52:05.624Z,34.13
2019-01-29T05:53:12.145Z,34.20
2019-01-29T05:54:18.800Z,31.50
2019-01-29T05:55:26.327Z,31.52
2019-01-29T05:56:32.916Z,32.05
2019-01-29T05:57:39.357Z,33.30
2019-01-29T05:58:45.739Z,31.60
2019-01-29T05:59:52.516Z,32.65
2019-01-29T06:00:59.100Z,31.45
2019-01-29T06:02:05.753Z,32.67
2019-01-29T06:03:12.706Z,33.65
2019-01-29T06:04:20.415Z,32.55
2019-01-29T06:05:26.927Z,31.95
2019-01-29T06:06:33.254Z,34.35
2019-01-29T06:07:39.658Z,33.53
2019-01-29T06:08:46.226Z,31.97
2019-01-29T06:09:52.738Z,32.13
2019-01-29T06:10:59.233Z,33.23
2019-01-29T06:12:05.759Z,33.15
2019-01-29T06:13:12.303Z,33.13
2019-01-29T06:14:29.565Z,31.93
2019-01-29T06:15:35.909Z,31.30
2019-01-29T06:16:42.327Z,32.35
2019-01-29T06:17:48.855Z,31.27
2019-01-29T06:18:55.282Z,33.10
2019-01-29T06:20:01.883Z,31.50
2019-01-29T06:21:09.559Z,33.13
2019-01-29T06:22:16.007Z,35.85
2019-01-29T06:23:22.410Z,31.35
2019-01-29T06:24:31.615Z,34.08
2019-01-29T06:25:39.291Z,32.73
2019-01-29T06:26:46.027Z,33.18
2019-01-29T06:27:52.546Z,33.98
2019-01-29T06:28:59.043Z,34.25
2019-01-29T06:30:06.341Z,33.48
2019-01-29T06:31:12.909Z,34.53
2019-01-29T06:32:19.417Z,34.27
2019-01-29T06:33:25.917Z,33.38
2019-01-29T06:34:32.394Z,34.73
2019-01-29T06:35:38.787Z,32.95
2019-01-29T06:36:45.214Z,33.05
2019-01-29T06:37:51.729Z,32.85
2019-01-29T06:38:58.211Z,33.00
2019-01-29T06:40:05.239Z,34.65
2019-01-29T06:41:11.830Z,34.60
2019-01-29T06:42:18.374Z,35.00
2019-01-29T06:43:24.893Z,34.83
2019-01-29T06:44:31.303Z,36.63
2019-01-29T06:45:37.734Z,36.40
2019-01-29T06:46:44.274Z,36.23
2019-01-29T06:47:50.936Z,36.20
2019-01-29T06:48:57.486Z,35.50
2019-01-29T06:50:04.422Z,35.15
2019-01-29T06:51:10.990Z,36.48
2019-01-29T06:52:19.098Z,37.95
2019-01-29T06:53:25.688Z,36.65
2019-01-29T06:54:34.152Z,36.55
2019-01-29T06:55:40.452Z,35.75
2019-01-29T06:56:47.501Z,35.40
2019-01-29T06:57:55.921Z,35.20
2019-01-29T06:59:02.799Z,35.13
2019-01-29T07:00:12.440Z,35.15
2019-01-29T07:01:18.889Z,33.38
2019-01-29T07:02:26.375Z,34.05
2019-01-29T07:03:32.859Z,37.38
2019-01-29T07:04:39.279Z,36.35
2019-01-29T07:05:45.703Z,37.23
2019-01-29T07:06:52.194Z,36.10
2019-01-29T07:07:58.666Z,35.58
2019-01-29T07:09:07.563Z,35.10
2019-01-29T07:10:15.807Z,35.38
2019-01-29T07:11:22.224Z,33.28
2019-01-29T07:12:28.863Z,34.45
2019-01-29T07:13:35.385Z,36.20
2019-01-29T07:14:42.005Z,34.58
2019-01-29T07:16:06.438Z,35.33
2019-01-29T07:17:33.238Z,33.58
2019-01-29T07:18:45.746Z,33.28
2019-01-29T07:19:54.906Z,33.00
2019-01-29T07:21:02.401Z,36.28
2019-01-29T07:22:08.854Z,34.00
2019-01-29T07:23:15.379Z,33.40
2019-01-29T07:24:21.868Z,31.75
2019-01-29T07:25:28.493Z,32.98
2019-01-29T07:26:35.035Z,34.63
2019-01-29T07:27:41.370Z,35.00
2019-01-29T07:28:47.936Z,33.78
2019-01-29T07:29:54.406Z,34.13
2019-01-29T07:31:00.960Z,35.33
2019-01-29T07:32:07.640Z,36.17
2019-01-29T07:33:15.146Z,33.73
2019-01-29T07:34:21.660Z,35.23
2019-01-29T07:35:28.302Z,33.28
2019-01-29T07:36:34.696Z,33.20
2019-01-29T07:37:41.151Z,33.28
2019-01-29T07:38:47.797Z,34.85
2019-01-29T07:39:54.402Z,33.15
2019-01-29T07:41:00.910Z,35.17
2019-01-29T07:42:08.029Z,34.73
2019-01-29T07:43:14.589Z,33.75
2019-01-29T07:44:20.978Z,35.23
2019-01-29T07:45:27.584Z,35.17
2019-01-29T07:46:34.050Z,32.30
2019-01-29T07:47:40.621Z,32.28
2019-01-29T07:48:47.074Z,34.33
2019-01-29T07:49:53.521Z,32.63
2019-01-29T07:50:59.986Z,33.10
2019-01-29T07:52:06.698Z,31.65
2019-01-29T07:53:14.524Z,33.83
2019-01-29T07:54:21.161Z,32.33
2019-01-29T07:55:27.662Z,33.67
2019-01-29T07:56:34.138Z,31.35
2019-01-29T07:57:40.652Z,32.93
2019-01-29T07:58:49.404Z,35.63
2019-01-29T07:59:55.994Z,33.95
2019-01-29T08:01:03.107Z,33.00
2019-01-29T08:02:09.864Z,32.88
2019-01-29T08:03:16.490Z,32.23
2019-01-29T08:04:23.018Z,31.42
2019-01-29T08:05:29.514Z,31.85
2019-01-29T08:06:35.999Z,31.95
2019-01-29T08:07:42.634Z,32.65
2019-01-29T08:08:49.142Z,31.05
2019-01-29T08:09:55.698Z,31.45
2019-01-29T08:11:02.167Z,33.25
2019-01-29T08:12:08.690Z,33.30
2019-01-29T08:13:15.365Z,32.60
2019-01-29T08:14:21.872Z,32.93
2019-01-29T08:15:28.392Z,30.17
2019-01-29T08:16:34.844Z,30.40
2019-01-29T08:17:41.482Z,29.32
2019-01-29T08:18:48.062Z,29.40
2019-01-29T08:19:54.540Z,30.55
2019-01-29T08:21:01.030Z,30.32
2019-01-29T08:22:07.534Z,32.15
2019-01-29T08:23:13.976Z,30.62
2019-01-29T08:24:20.678Z,30.17
2019-01-29T08:25:27.108Z,29.87
2019-01-29T08:26:33.700Z,30.37
2019-01-29T08:27:42.002Z,31.33
2019-01-29T08:28:48.410Z,30.72
2019-01-29T08:29:54.926Z,30.92
2019-01-29T08:31:01.422Z,28.30
2019-01-29T08:32:08.009Z,31.40
2019-01-29T08:33:14.499Z,29.52
2019-01-29T08:34:21.170Z,32.70
2019-01-29T08:35:27.748Z,30.05
2019-01-29T08:36:35.586Z,28.50
2019-01-29T08:37:42.313Z,28.57
2019-01-29T08:38:48.869Z,30.40
2019-01-29T08:39:55.350Z,26.40
2019-01-29T08:41:02.115Z,26.25
2019-01-29T08:42:08.719Z,27.77
2019-01-29T08:43:15.473Z,26.57
2019-01-29T08:44:21.866Z,27.52
2019-01-29T08:45:28.500Z,27.40
2019-01-29T08:46:35.060Z,27.62
2019-01-29T08:47:41.720Z,26.85
2019-01-29T08:48:48.194Z,28.95
2019-01-29T08:49:54.755Z,27.67
2019-01-29T08:51:01.169Z,27.60
2019-01-29T08:52:07.918Z,27.95
2019-01-29T08:53:14.364Z,28.00
2019-01-29T08:54:20.788Z,28.20
2019-01-29T08:55:27.379Z,28.10
2019-01-29T08:56:33.843Z,29.18
2019-01-29T08:57:41.537Z,27.17
2019-01-29T08:58:49.120Z,28.20
2019-01-29T08:59:55.697Z,28.10
2019-01-29T09:01:02.217Z,25.85
2019-01-29T09:02:08.718Z,25.97
2019-01-29T09:03:15.537Z,27.98
2019-01-29T09:04:22.026Z,25.15
2019-01-29T09:05:28.557Z,26.73
2019-01-29T09:06:36.416Z,25.72
2019-01-29T09:07:42.879Z,27.82
2019-01-29T09:08:49.686Z,27.40
2019-01-29T09:09:56.258Z,27.65
2019-01-29T09:11:02.772Z,27.07
2019-01-29T09:12:09.264Z,26.75
2019-01-29T09:13:15.851Z,26.65
2019-01-29T09:14:22.569Z,27.48
2019-01-29T09:15:29.876Z,27.15
2019-01-29T09:16:36.553Z,25.25
2019-01-29T09:17:43.310Z,22.58
2019-01-29T09:18:49.846Z,25.50
2019-01-29T09:19:56.539Z,27.20
2019-01-29T09:21:04.181Z,26.25
2019-01-29T09:22:21.691Z,26.23
2019-01-29T09:23:28.289Z,25.25
2019-01-29T09:24:34.981Z,24.85
2019-01-29T09:25:41.557Z,24.70
2019-01-29T09:26:48.036Z,22.58
2019-01-29T09:27:54.722Z,21.85
2019-01-29T09:29:01.230Z,21.57
2019-01-29T09:30:09.664Z,22.32
2019-01-29T09:31:16.299Z,21.42
2019-01-29T09:32:23.033Z,21.85
2019-01-29T09:33:29.535Z,23.80
2019-01-29T09:34:36.257Z,21.75
2019-01-29T09:35:42.684Z,22.40
2019-01-29T09:36:49.240Z,21.55
2019-01-29T09:37:55.734Z,23.10
2019-01-29T09:39:02.211Z,23.02
2019-01-29T09:40:11.426Z,21.23
2019-01-29T09:41:17.895Z,22.25
2019-01-29T09:42:25.191Z,21.93
2019-01-29T09:43:31.863Z,21.90
2019-01-29T09:44:38.333Z,21.93
2019-01-29T09:45:44.975Z,22.02
2019-01-29T09:46:51.377Z,22.22
2019-01-29T09:47:58.967Z,21.85
2019-01-29T09:49:05.556Z,23.75
2019-01-29T09:50:13.790Z,23.07
2019-01-29T09:51:20.434Z,22.67
2019-01-29T09:52:27.296Z,19.40
2019-01-29T09:53:34.040Z,22.70
2019-01-29T09:54:40.551Z,21.45
2019-01-29T09:55:47.067Z,22.00
2019-01-29T09:56:54.686Z,21.40
2019-01-29T09:58:01.147Z,19.80
2019-01-29T09:59:07.806Z,21.57
2019-01-29T10:00:18.343Z,21.62
2019-01-29T10:01:25.054Z,20.17
2019-01-29T10:02:31.663Z,20.92
2019-01-29T10:03:39.260Z,21.73
2019-01-29T10:04:45.885Z,21.27
2019-01-29T10:05:52.342Z,20.35
2019-01-29T10:06:59.355Z,19.52
2019-01-29T10:08:07.824Z,19.67
2019-01-29T10:09:14.367Z,20.00
2019-01-29T10:10:21.118Z,18.60
2019-01-29T10:11:28.629Z,17.70
2019-01-29T10:12:35.270Z,19.00
2019-01-29T10:13:41.764Z,17.40
2019-01-29T10:14:48.307Z,18.50
2019-01-29T10:15:54.754Z,18.10
2019-01-29T10:17:01.310Z,18.35
2019-01-29T10:18:07.913Z,18.65
2019-01-29T10:19:14.477Z,19.00
2019-01-29T10:20:21.518Z,19.98
2019-01-29T10:21:28.185Z,19.15
2019-01-29T10:22:35.176Z,18.50
2019-01-29T10:23:42.917Z,17.85
2019-01-29T10:24:49.826Z,17.95
2019-01-29T10:25:56.942Z,18.45
2019-01-29T10:27:03.664Z,18.82
2019-01-29T10:28:10.393Z,18.23
2019-01-29T10:29:16.994Z,17.42
2019-01-29T10:30:24.013Z,17.35
2019-01-29T10:31:31.798Z,17.82
2019-01-29T10:32:38.258Z,18.25
2019-01-29T10:33:44.809Z,16.77
2019-01-29T10:34:51.386Z,18.90
2019-01-29T10:35:57.974Z,17.23
2019-01-29T10:37:04.714Z,17.40
2019-01-29T10:38:11.419Z,16.60
2019-01-29T10:39:18.051Z,17.60
2019-01-29T10:40:26.643Z,17.67
2019-01-29T10:41:33.209Z,17.50
2019-01-29T10:42:39.808Z,17.55
2019-01-29T10:43:46.527Z,17.17
2019-01-29T10:44:53.392Z,16.85
2019-01-29T10:46:00.079Z,17.27
2019-01-29T10:47:06.771Z,17.77
2019-01-29T10:48:13.452Z,18.05
2019-01-29T10:49:20.111Z,18.35
2019-01-29T10:50:27.966Z,17.50
2019-01-29T10:51:34.399Z,17.73
2019-01-29T10:52:41.205Z,18.95
2019-01-29T10:53:47.939Z,17.00
2019-01-29T10:54:54.763Z,18.40
2019-01-29T10:56:01.226Z,18.55
2019-01-29T10:57:07.658Z,17.80
2019-01-29T10:58:14.139Z,19.05
2019-01-29T10:59:20.633Z,19.15
2019-01-29T11:00:33.123Z,18.85
2019-01-29T11:01:39.562Z,19.42
2019-01-29T11:02:46.027Z,18.32
2019-01-29T11:03:52.478Z,19.30
2019-01-29T11:04:59.061Z,19.02
2019-01-29T11:06:05.845Z,20.55
2019-01-29T11:07:12.447Z,18.87
2019-01-29T11:08:20.180Z,19.67
2019-01-29T11:09:26.929Z,18.10
2019-01-29T11:10:33.755Z,18.82
2019-01-29T11:11:40.295Z,18.27
2019-01-29T11:12:46.904Z,18.00
2019-01-29T11:13:53.519Z,17.55
2019-01-29T11:15:00.041Z,18.67
2019-01-29T11:16:06.702Z,19.48
2019-01-29T11:17:13.221Z,17.70
2019-01-29T11:18:19.711Z,17.23
2019-01-29T11:19:26.205Z,18.55
2019-01-29T11:20:51.537Z,17.35
2019-01-29T11:21:57.931Z,17.48
2019-01-29T11:23:04.456Z,18.70
2019-01-29T11:24:10.883Z,17.77
2019-01-29T11:25:20.368Z,17.87
2019-01-29T11:26:26.674Z,20.10
2019-01-29T11:27:33.212Z,18.40
2019-01-29T11:28:39.741Z,17.35
2019-01-29T11:29:46.285Z,17.73
2019-01-29T11:30:52.704Z,17.15
2019-01-29T11:31:59.186Z,18.57
2019-01-29T11:33:07.671Z,16.97
2019-01-29T11:34:14.086Z,16.02
2019-01-29T11:35:31.848Z,17.20
2019-01-29T11:36:38.365Z,16.65
2019-01-29T11:37:44.923Z,16.73
2019-01-29T11:38:51.340Z,16.30
2019-01-29T11:39:58.024Z,18.00
2019-01-29T11:41:04.539Z,19.65
2019-01-29T11:42:11.092Z,18.70
2019-01-29T11:43:17.685Z,17.60
2019-01-29T11:44:24.164Z,19.50
2019-01-29T11:45:51.537Z,17.05
2019-01-29T11:46:58.179Z,16.50
2019-01-29T11:48:04.926Z,17.42
2019-01-29T11:49:11.470Z,17.75
2019-01-29T11:50:19.360Z,16.67
2019-01-29T11:51:25.961Z,16.60
2019-01-29T11:52:32.891Z,16.87
2019-01-29T11:53:39.394Z,18.05
2019-01-29T11:54:47.503Z,18.48
2019-01-29T11:55:54.019Z,17.95
2019-01-29T11:57:00.599Z,17.65
2019-01-29T11:58:07.261Z,16.85
2019-01-29T11:59:13.927Z,16.45
2019-01-29T12:00:28.757Z,17.45
2019-01-29T12:01:35.416Z,16.93
2019-01-29T12:02:41.891Z,18.60
2019-01-29T12:03:48.467Z,16.62
2019-01-29T12:04:54.974Z,16.62
2019-01-29T12:06:01.426Z,17.15
2019-01-29T12:07:07.980Z,17.05
2019-01-29T12:08:14.723Z,17.12
2019-01-29T12:09:21.557Z,16.35
2019-01-29T12:10:27.987Z,18.20
2019-01-29T12:11:34.418Z,17.05
2019-01-29T12:12:40.947Z,16.55
2019-01-29T12:13:47.599Z,16.00
2019-01-29T12:14:54.295Z,16.32
2019-01-29T12:16:01.112Z,16.62
2019-01-29T12:17:07.702Z,16.35
2019-01-29T12:18:14.179Z,16.27
2019-01-29T12:19:20.770Z,15.40
2019-01-29T12:20:27.402Z,15.05
2019-01-29T12:21:34.043Z,14.45
2019-01-29T12:22:40.595Z,15.72
2019-01-29T12:23:47.122Z,15.32
2019-01-29T12:24:53.750Z,15.78
2019-01-29T12:26:00.189Z,15.75
2019-01-29T12:27:06.648Z,16.17
2019-01-29T12:28:18.778Z,15.60
2019-01-29T12:29:45.651Z,15.93
2019-01-29T12:30:52.247Z,17.50
2019-01-29T12:31:58.752Z,17.10
2019-01-29T12:33:06.741Z,16.70
2019-01-29T12:34:13.118Z,15.78
2019-01-29T12:35:23.802Z,17.45
2019-01-29T12:36:30.712Z,17.30
2019-01-29T12:37:37.144Z,18.32
2019-01-29T12:38:44.726Z,17.12
2019-01-29T12:39:51.218Z,16.50
2019-01-29T12:40:57.694Z,16.95
2019-01-29T12:42:04.525Z,16.62
2019-01-29T12:43:13.525Z,15.53
2019-01-29T12:44:20.084Z,16.37
2019-01-29T12:45:26.488Z,15.45
2019-01-29T12:46:43.559Z,15.50
2019-01-29T12:47:50.171Z,16.05
2019-01-29T12:48:56.593Z,15.48
2019-01-29T12:50:03.071Z,16.12
2019-01-29T12:51:16.736Z,15.48
2019-01-29T12:52:29.489Z,15.43
2019-01-29T12:53:38.333Z,15.30
2019-01-29T12:54:44.759Z,15.60
2019-01-29T12:55:51.292Z,15.45
2019-01-29T12:56:58.550Z,15.23
2019-01-29T12:58:06.968Z,16.45
2019-01-29T12:59:13.487Z,14.78
2019-01-29T13:00:27.734Z,14.90
2019-01-29T13:01:56.304Z,14.43
2019-01-29T13:03:03.404Z,15.45
2019-01-29T13:04:09.857Z,14.78
2019-01-29T13:05:16.625Z,14.55
2019-01-29T13:06:23.078Z,14.50
2019-01-29T13:07:29.624Z,14.40
2019-01-29T13:08:36.180Z,13.58
2019-01-29T13:09:44.141Z,13.88
2019-01-29T13:10:52.278Z,13.30
2019-01-29T13:11:58.834Z,13.75
2019-01-29T13:13:05.568Z,12.68
2019-01-29T13:14:12.024Z,13.38
2019-01-29T13:15:21.229Z,12.65
2019-01-29T13:16:27.915Z,13.38
2019-01-29T13:17:34.463Z,14.20
2019-01-29T13:18:41.003Z,12.70
2019-01-29T13:19:47.456Z,12.58
2019-01-29T13:20:54.047Z,13.00
2019-01-29T13:22:00.527Z,13.05
2019-01-29T13:23:07.148Z,11.55
2019-01-29T13:24:13.522Z,11.80
2019-01-29T13:25:20.103Z,12.65
2019-01-29T13:26:30.054Z,12.15
2019-01-29T13:27:34.764Z,12.20
2019-01-29T13:28:41.158Z,11.38
2019-01-29T13:29:47.970Z,11.95
2019-01-29T13:30:54.687Z,11.48
2019-01-29T13:32:01.102Z,10.70
2019-01-29T13:33:10.394Z,10.65
2019-01-29T13:34:16.905Z,10.90
2019-01-29T13:35:24.860Z,11.33
2019-01-29T13:36:32.739Z,11.90
2019-01-29T13:37:39.547Z,10.85
2019-01-29T13:38:46.313Z,11.93
2019-01-29T13:39:52.827Z,12.18
2019-01-29T13:40:59.335Z,11.03
2019-01-29T13:42:05.809Z,11.15
2019-01-29T13:43:12.308Z,11.97
2019-01-29T13:44:18.939Z,11.45
2019-01-29T13:45:25.944Z,11.22
2019-01-29T13:46:32.582Z,11.88
2019-01-29T13:47:39.223Z,10.93
2019-01-29T13:48:45.724Z,13.88
2019-01-29T13:49:52.206Z,11.60
2019-01-29T13:51:00.840Z,11.15
2019-01-29T13:52:07.203Z,12.55
2019-01-29T13:53:13.791Z,12.70
2019-01-29T13:54:20.286Z,11.30
2019-01-29T13:55:27.027Z,11.68
2019-01-29T13:56:38.782Z,10.78
2019-01-29T13:57:41.881Z,11.35
2019-01-29T13:58:48.410Z,11.20
2019-01-29T13:59:54.780Z,11.65
2019-01-29T14:01:01.493Z,11.80
2019-01-29T14:02:08.062Z,11.65
2019-01-29T14:03:14.918Z,11.35
2019-01-29T14:04:21.294Z,11.85
2019-01-29T14:05:27.765Z,11.90
2019-01-29T14:06:34.255Z,10.80
2019-01-29T14:07:42.053Z,11.20
2019-01-29T14:08:48.535Z,11.15
2019-01-29T14:10:05.913Z,11.53
2019-01-29T14:11:12.458Z,12.88
2019-01-29T14:12:18.895Z,14.00
2019-01-29T14:13:25.664Z,12.73
2019-01-29T14:14:34.399Z,12.40
2019-01-29T14:15:44.567Z,11.97
2019-01-29T14:16:51.035Z,13.53
2019-01-29T14:17:57.866Z,13.85
2019-01-29T14:19:05.565Z,12.95
2019-01-29T14:20:15.675Z,10.48
2019-01-29T14:21:23.387Z,10.88
2019-01-29T14:22:29.870Z,11.00
2019-01-29T14:23:36.470Z,11.05
2019-01-29T14:24:43.545Z,10.98
2019-01-29T14:25:50.209Z,9.60